createdAt,value
2017-07-31T00:00:47.740Z,20.20
2017-07-31T00:05:51.718Z,20.10
2017-07-31T00:10:54.899Z,20.00
2017-07-31T00:15:58.078Z,20.00
2017-07-31T00:21:02.028Z,19.80
2017-07-31T00:26:05.227Z,19.80
2017-07-31T00:31:08.397Z,19.70
2017-07-31T00:36:12.751Z,19.60
2017-07-31T00:41:16.670Z,19.60
2017-07-31T00:46:19.880Z,19.60
2017-07-31T00:51:23.842Z,19.50
2017-07-31T00:56:27.037Z,19.40
2017-07-31T01:01:30.214Z,19.50
2017-07-31T01:06:34.181Z,19.20
2017-07-31T01:11:37.370Z,19.10
2017-07-31T01:16:40.551Z,18.80
2017-07-31T01:21:44.493Z,18.40
2017-07-31T01:26:47.694Z,18.40
2017-07-31T01:31:50.889Z,18.10
2017-07-31T01:36:54.882Z,18.20
2017-07-31T01:41:58.101Z,18.20
2017-07-31T01:47:02.050Z,18.40
2017-07-31T01:52:05.994Z,18.20
2017-07-31T01:57:09.153Z,18.20
2017-07-31T02:02:12.368Z,18.10
2017-07-31T02:07:15.647Z,18.20
2017-07-31T02:12:18.842Z,17.90
2017-07-31T02:17:22.034Z,17.80
2017-07-31T02:22:25.297Z,17.80
2017-07-31T02:27:29.242Z,18.00
2017-07-31T02:32:32.483Z,18.00
2017-07-31T02:37:35.721Z,18.40
2017-07-31T02:42:38.917Z,18.60
2017-07-31T02:47:42.252Z,18.20
2017-07-31T02:52:46.194Z,18.00
2017-07-31T02:57:50.136Z,18.10
2017-07-31T03:02:53.334Z,18.10
2017-07-31T03:07:56.658Z,18.10
2017-07-31T03:12:59.881Z,17.90
2017-07-31T03:18:03.070Z,17.50
2017-07-31T03:23:06.283Z,17.60
2017-07-31T03:28:09.461Z,17.60
2017-07-31T03:33:12.684Z,17.40
2017-07-31T03:38:15.858Z,17.50
2017-07-31T03:43:19.809Z,17.10
2017-07-31T03:48:22.985Z,17.20
2017-07-31T03:53:26.442Z,16.70
2017-07-31T03:58:29.613Z,17.10
2017-07-31T04:03:33.561Z,17.60
2017-07-31T04:08:36.778Z,17.60
2017-07-31T04:13:39.962Z,17.50
2017-07-31T04:18:43.908Z,17.80
2017-07-31T04:23:47.108Z,17.70
2017-07-31T04:28:50.297Z,17.80
2017-07-31T04:33:54.237Z,18.20
2017-07-31T04:38:57.411Z,18.20
2017-07-31T04:44:01.362Z,18.60
2017-07-31T04:49:04.549Z,18.60
2017-07-31T04:54:08.504Z,20.30
2017-07-31T04:59:11.717Z,20.30
2017-07-31T05:04:14.890Z,19.90
2017-07-31T05:09:18.814Z,20.90
2017-07-31T05:14:22.764Z,19.60
2017-07-31T05:19:25.959Z,19.60
2017-07-31T05:24:29.140Z,19.70
2017-07-31T05:29:32.300Z,19.50
2017-07-31T05:34:35.481Z,20.50
2017-07-31T05:39:38.664Z,22.00
2017-07-31T05:44:42.619Z,24.10
2017-07-31T05:49:45.789Z,24.10
2017-07-31T05:54:49.740Z,24.50
2017-07-31T05:59:52.902Z,24.40
2017-07-31T06:04:56.104Z,22.80
2017-07-31T06:09:59.269Z,24.50
2017-07-31T06:15:02.462Z,25.10
2017-07-31T06:20:05.744Z,26.10
2017-07-31T06:25:08.939Z,26.10
2017-07-31T06:30:12.134Z,27.50
2017-07-31T06:35:15.349Z,27.50
2017-07-31T06:40:18.546Z,26.90
2017-07-31T06:45:21.724Z,27.40
2017-07-31T06:50:24.901Z,27.30
2017-07-31T06:55:28.861Z,27.50
2017-07-31T07:00:32.055Z,27.50
2017-07-31T07:05:35.266Z,26.90
2017-07-31T07:10:38.450Z,27.50
2017-07-31T07:15:42.437Z,28.00
2017-07-31T07:20:45.577Z,27.90
2017-07-31T07:25:49.557Z,27.90
2017-07-31T07:30:52.705Z,27.90
2017-07-31T07:35:56.650Z,28.70
2017-07-31T07:40:59.855Z,28.70
2017-07-31T07:46:03.060Z,29.10
2017-07-31T07:51:07.002Z,28.30
2017-07-31T07:56:10.185Z,28.20
2017-07-31T08:01:14.129Z,29.20
2017-07-31T08:06:17.325Z,29.20
2017-07-31T08:11:20.627Z,29.00
2017-07-31T08:16:24.584Z,28.30
2017-07-31T08:21:27.761Z,28.30
2017-07-31T08:26:31.032Z,28.00
2017-07-31T08:31:34.232Z,28.60
2017-07-31T08:36:37.397Z,27.60
2017-07-31T08:41:40.594Z,27.10
2017-07-31T08:46:43.790Z,26.50
2017-07-31T08:51:47.736Z,27.20
2017-07-31T08:56:50.979Z,27.20
2017-07-31T09:01:54.143Z,27.70
2017-07-31T09:06:57.345Z,28.90
2017-07-31T09:12:00.707Z,28.80
2017-07-31T09:17:03.868Z,28.00
2017-07-31T09:22:07.077Z,27.50
2017-07-31T09:27:10.323Z,28.30
2017-07-31T09:32:13.630Z,28.40
2017-07-31T09:37:16.827Z,27.60
2017-07-31T09:42:20.004Z,27.30
2017-07-31T09:47:23.196Z,28.40
2017-07-31T09:52:27.148Z,29.10
2017-07-31T09:57:30.341Z,29.10
2017-07-31T10:02:33.636Z,29.10
2017-07-31T10:07:37.578Z,28.90
2017-07-31T10:12:40.778Z,28.90
2017-07-31T10:17:43.960Z,29.30
2017-07-31T10:22:47.943Z,28.60
2017-07-31T10:27:51.134Z,28.60
2017-07-31T10:32:54.412Z,28.90
2017-07-31T10:37:58.378Z,29.20
2017-07-31T10:43:01.573Z,29.20
2017-07-31T10:48:05.026Z,29.00
2017-07-31T10:53:08.284Z,29.00
2017-07-31T10:58:11.507Z,28.80
2017-07-31T11:03:14.712Z,28.20
2017-07-31T11:08:17.875Z,28.50
2017-07-31T11:13:21.813Z,29.70
2017-07-31T11:18:25.033Z,29.70
2017-07-31T11:23:28.242Z,29.70
2017-07-31T11:28:31.569Z,30.00
2017-07-31T11:33:34.762Z,29.60
2017-07-31T11:38:37.937Z,28.80
2017-07-31T11:43:41.139Z,28.60
2017-07-31T11:48:45.092Z,29.10
2017-07-31T11:53:48.295Z,29.10
2017-07-31T11:58:51.596Z,29.80
2017-07-31T12:03:56.574Z,29.90
2017-07-31T12:08:59.792Z,29.50
2017-07-31T12:14:03.032Z,29.50
2017-07-31T12:19:06.235Z,29.30
2017-07-31T12:24:09.470Z,28.80
2017-07-31T12:29:13.421Z,29.10
2017-07-31T12:34:16.617Z,29.10
2017-07-31T12:39:19.821Z,28.80
2017-07-31T12:44:23.054Z,28.90
2017-07-31T12:49:26.246Z,29.30
2017-07-31T12:54:29.449Z,28.90
2017-07-31T12:59:32.645Z,29.60
2017-07-31T13:04:35.849Z,29.90
2017-07-31T13:09:39.041Z,30.70
2017-07-31T13:14:43.011Z,29.80
2017-07-31T13:19:46.220Z,29.70
2017-07-31T13:24:49.389Z,29.60
2017-07-31T13:29:52.601Z,29.30
2017-07-31T13:34:55.822Z,29.90
2017-07-31T13:39:59.026Z,30.10
2017-07-31T13:45:02.413Z,29.70
2017-07-31T13:50:06.382Z,28.70
2017-07-31T13:55:09.655Z,28.70
2017-07-31T14:00:13.632Z,28.70
2017-07-31T14:05:16.816Z,28.60
2017-07-31T14:10:20.017Z,28.70
2017-07-31T14:15:23.207Z,28.10
2017-07-31T14:20:26.405Z,28.00
2017-07-31T14:25:29.593Z,27.90
2017-07-31T14:30:33.641Z,27.80
2017-07-31T14:35:36.851Z,27.80
2017-07-31T14:40:40.049Z,27.70
2017-07-31T14:45:43.271Z,27.80
2017-07-31T14:50:46.622Z,27.70
2017-07-31T14:55:49.810Z,27.70
2017-07-31T15:00:52.987Z,27.50
2017-07-31T15:05:56.930Z,26.80
2017-07-31T15:11:00.133Z,26.80
2017-07-31T15:16:03.333Z,27.00
2017-07-31T15:21:06.549Z,26.90
2017-07-31T15:26:09.833Z,26.80
2017-07-31T15:31:13.792Z,26.90
2017-07-31T15:36:16.978Z,26.90
2017-07-31T15:41:20.182Z,26.60
2017-07-31T15:46:23.397Z,27.00
2017-07-31T15:51:26.581Z,26.70
2017-07-31T15:56:29.763Z,26.50
2017-07-31T16:01:32.997Z,26.40
2017-07-31T16:06:36.261Z,26.60
2017-07-31T16:11:39.470Z,26.60
2017-07-31T16:16:42.655Z,26.90
2017-07-31T16:21:45.832Z,26.90
2017-07-31T16:26:49.018Z,26.50
2017-07-31T16:31:52.998Z,26.70
2017-07-31T16:36:56.205Z,26.80
2017-07-31T16:42:02.026Z,27.70
2017-07-31T16:47:22.819Z,28.20
2017-07-31T16:52:26.001Z,28.10
2017-07-31T16:57:29.169Z,27.90
2017-07-31T17:02:32.339Z,28.80
2017-07-31T17:07:36.053Z,28.20
2017-07-31T17:12:39.231Z,28.20
2017-07-31T17:17:42.411Z,29.20
2017-07-31T17:22:46.717Z,27.30
2017-07-31T17:27:50.876Z,26.10
2017-07-31T17:32:54.053Z,26.00
2017-07-31T17:37:58.039Z,25.60
2017-07-31T17:43:01.556Z,25.60
2017-07-31T17:48:04.783Z,25.60
2017-07-31T17:53:07.972Z,25.60
2017-07-31T17:58:11.178Z,25.50
2017-07-31T18:03:14.417Z,25.50
2017-07-31T18:08:17.606Z,25.40
2017-07-31T18:13:20.829Z,25.50
2017-07-31T18:18:24.804Z,25.30
2017-07-31T18:23:27.981Z,25.20
2017-07-31T18:28:31.195Z,25.10
2017-07-31T18:33:34.389Z,24.90
2017-07-31T18:38:38.707Z,24.80
2017-07-31T18:43:42.016Z,24.80
2017-07-31T18:48:45.266Z,24.80
2017-07-31T18:53:48.470Z,24.80
2017-07-31T18:58:51.665Z,24.60
2017-07-31T19:03:54.877Z,24.60
2017-07-31T19:08:58.069Z,24.10
2017-07-31T19:14:02.143Z,23.50
2017-07-31T19:19:05.343Z,23.50
2017-07-31T19:24:08.569Z,23.60
2017-07-31T19:29:11.756Z,23.30
2017-07-31T19:34:15.578Z,23.50
2017-07-31T19:39:18.778Z,23.50
2017-07-31T19:44:22.019Z,24.40
2017-07-31T19:49:25.262Z,24.20
2017-07-31T19:54:29.223Z,25.10
2017-07-31T19:59:35.446Z,25.10
2017-07-31T20:04:38.663Z,26.70
2017-07-31T20:09:42.966Z,23.00
2017-07-31T20:14:46.170Z,22.90
2017-07-31T20:19:49.395Z,22.30
2017-07-31T20:24:52.601Z,22.40
2017-07-31T20:29:55.814Z,22.70
2017-07-31T20:34:59.018Z,23.70
2017-07-31T20:40:02.995Z,21.40
2017-07-31T20:45:06.214Z,21.40
2017-07-31T20:50:09.504Z,21.30
2017-07-31T20:55:12.706Z,21.40
2017-07-31T21:00:15.896Z,21.30
2017-07-31T21:05:19.144Z,21.30
2017-07-31T21:10:22.337Z,21.20
2017-07-31T21:15:25.584Z,21.10
2017-07-31T21:20:28.774Z,21.10
2017-07-31T21:25:31.991Z,21.00
2017-07-31T21:30:35.174Z,20.90
2017-07-31T21:35:38.362Z,20.70
2017-07-31T21:40:41.570Z,20.70
2017-07-31T21:45:44.931Z,20.60
2017-07-31T21:50:48.160Z,20.50
2017-07-31T21:55:52.109Z,20.70
2017-07-31T22:00:55.310Z,20.70
2017-07-31T22:05:58.652Z,20.80
2017-07-31T22:11:01.837Z,20.70
2017-07-31T22:16:05.061Z,20.90
2017-07-31T22:21:13.812Z,21.10
2017-07-31T22:26:17.142Z,21.10
2017-07-31T22:31:20.320Z,21.20
2017-07-31T22:36:23.545Z,21.10
2017-07-31T22:41:26.725Z,21.00
2017-07-31T22:46:29.945Z,20.90
2017-07-31T22:51:33.466Z,20.80
2017-07-31T22:56:36.662Z,20.70
2017-07-31T23:01:39.870Z,20.80
2017-07-31T23:06:43.073Z,20.90
2017-07-31T23:11:46.229Z,21.20
2017-07-31T23:16:50.189Z,21.60
2017-07-31T23:21:53.356Z,21.60
2017-07-31T23:26:56.680Z,21.70
2017-07-31T23:31:59.882Z,21.50
2017-07-31T23:37:03.087Z,21.40
2017-07-31T23:42:07.028Z,21.30
2017-07-31T23:47:10.186Z,21.30
2017-07-31T23:52:13.425Z,21.10
2017-07-31T23:57:17.383Z,21.40
